sensor_id;sensor_type;location;lat;lon;timestamp;temperature;humidity
26703;DHT22;14316;51.074;3.704;2023-12-20T00:01:22;5.90;99.90
26703;DHT22;14316;51.074;3.704;2023-12-20T00:03:48;5.80;99.90
26703;DHT22;14316;51.074;3.704;2023-12-20T00:06:14;5.80;99.90
26703;DHT22;14316;51.074;3.704;2023-12-20T00:08:40;5.70;99.90
26703;DHT22;14316;51.074;3.704;2023-12-20T00:11:06;5.70;99.90
26703;DHT22;14316;51.074;3.704;2023-12-20T00:13:32;5.60;99.90
26703;DHT22;14316;51.074;3.704;2023-12-20T00:15:58;5.60;99.90
26703;DHT22;14316;51.074;3.704;2023-12-20T00:18:24;5.60;99.90
26703;DHT22;14316;51.074;3.704;2023-12-20T00:20:49;5.50;99.90
26703;DHT22;14316;51.074;3.704;2023-12-20T00:23:16;5.50;99.90
26703;DHT22;14316;51.074;3.704;2023-12-20T00:25:42;5.50;99.90
26703;DHT22;14316;51.074;3.704;2023-12-20T00:28:08;5.50;99.90
26703;DHT22;14316;51.074;3.704;2023-12-20T00:30:34;5.50;99.90
26703;DHT22;14316;51.074;3.704;2023-12-20T00:33:00;5.50;99.90
26703;DHT22;14316;51.074;3.704;2023-12-20T00:35:26;5.50;99.90
26703;DHT22;14316;51.074;3.704;2023-12-20T00:37:52;5.50;99.90
26703;DHT22;14316;51.074;3.704;2023-12-20T00:40:17;5.60;99.90
26703;DHT22;14316;51.074;3.704;2023-12-20T00:42:43;5.50;99.90
26703;DHT22;14316;51.074;3.704;2023-12-20T00:45:09;5.50;99.90
26703;DHT22;14316;51.074;3.704;2023-12-20T00:47:35;5.50;99.90
26703;DHT22;14316;51.074;3.704;2023-12-20T00:50:01;5.50;99.90
26703;DHT22;14316;51.074;3.704;2023-12-20T00:52:27;5.50;99.90
26703;DHT22;14316;51.074;3.704;2023-12-20T00:54:53;5.60;99.90
26703;DHT22;14316;51.074;3.704;2023-12-20T00:57:19;5.60;99.90
26703;DHT22;14316;51.074;3.704;2023-12-20T00:59:45;5.60;99.90
26703;DHT22;14316;51.074;3.704;2023-12-20T01:02:11;5.70;99.90
26703;DHT22;14316;51.074;3.704;2023-12-20T01:04:37;5.60;99.90
26703;DHT22;14316;51.074;3.704;2023-12-20T01:07:03;5.60;99.90
26703;DHT22;14316;51.074;3.704;2023-12-20T01:09:29;5.60;99.90
26703;DHT22;14316;51.074;3.704;2023-12-20T01:11:55;5.60;99.90
26703;DHT22;14316;51.074;3.704;2023-12-20T01:14:21;5.60;99.90
26703;DHT22;14316;51.074;3.704;2023-12-20T01:16:47;5.60;99.90
26703;DHT22;14316;51.074;3.704;2023-12-20T01:19:13;5.60;99.90
26703;DHT22;14316;51.074;3.704;2023-12-20T01:21:40;5.70;99.90
26703;DHT22;14316;51.074;3.704;2023-12-20T01:24:06;5.80;99.90
26703;DHT22;14316;51.074;3.704;2023-12-20T01:26:32;5.80;99.90
26703;DHT22;14316;51.074;3.704;2023-12-20T01:28:57;5.90;99.90
26703;DHT22;14316;51.074;3.704;2023-12-20T01:31:23;5.90;99.90
26703;DHT22;14316;51.074;3.704;2023-12-20T01:33:49;5.90;99.90
26703;DHT22;14316;51.074;3.704;2023-12-20T01:36:15;6.00;99.90
26703;DHT22;14316;51.074;3.704;2023-12-20T01:38:41;6.00;99.90
26703;DHT22;14316;51.074;3.704;2023-12-20T01:41:07;6.00;99.90
26703;DHT22;14316;51.074;3.704;2023-12-20T01:43:33;6.00;99.90
26703;DHT22;14316;51.074;3.704;2023-12-20T01:45:59;6.00;99.90
26703;DHT22;14316;51.074;3.704;2023-12-20T01:48:26;6.10;99.90
26703;DHT22;14316;51.074;3.704;2023-12-20T01:50:53;6.10;99.90
26703;DHT22;14316;51.074;3.704;2023-12-20T01:53:21;6.10;99.90
26703;DHT22;14316;51.074;3.704;2023-12-20T01:55:50;6.10;99.90
26703;DHT22;14316;51.074;3.704;2023-12-20T01:58:18;6.10;99.90
26703;DHT22;14316;51.074;3.704;2023-12-20T02:00:44;6.10;99.90
26703;DHT22;14316;51.074;3.704;2023-12-20T02:03:11;6.10;99.90
26703;DHT22;14316;51.074;3.704;2023-12-20T02:05:38;6.10;99.90
26703;DHT22;14316;51.074;3.704;2023-12-20T02:08:04;6.20;99.90
26703;DHT22;14316;51.074;3.704;2023-12-20T02:10:31;6.20;99.90
26703;DHT22;14316;51.074;3.704;2023-12-20T02:12:57;6.20;99.90
26703;DHT22;14316;51.074;3.704;2023-12-20T02:15:24;6.20;99.90
26703;DHT22;14316;51.074;3.704;2023-12-20T02:17:50;6.20;99.90
26703;DHT22;14316;51.074;3.704;2023-12-20T02:20:16;6.20;99.90
26703;DHT22;14316;51.074;3.704;2023-12-20T02:22:42;6.30;99.90
26703;DHT22;14316;51.074;3.704;2023-12-20T02:25:08;6.30;99.90
26703;DHT22;14316;51.074;3.704;2023-12-20T02:27:35;6.30;99.90
26703;DHT22;14316;51.074;3.704;2023-12-20T02:30:01;6.30;99.90
26703;DHT22;14316;51.074;3.704;2023-12-20T02:32:27;6.30;99.90
26703;DHT22;14316;51.074;3.704;2023-12-20T02:34:55;6.40;99.90
26703;DHT22;14316;51.074;3.704;2023-12-20T02:37:21;6.40;99.90
26703;DHT22;14316;51.074;3.704;2023-12-20T02:39:47;6.40;99.90
26703;DHT22;14316;51.074;3.704;2023-12-20T02:42:13;6.40;99.90
26703;DHT22;14316;51.074;3.704;2023-12-20T02:44:39;6.50;99.90
26703;DHT22;14316;51.074;3.704;2023-12-20T02:47:05;6.50;99.90
26703;DHT22;14316;51.074;3.704;2023-12-20T02:49:31;6.50;99.90
26703;DHT22;14316;51.074;3.704;2023-12-20T02:51:57;6.50;99.90
26703;DHT22;14316;51.074;3.704;2023-12-20T02:54:22;6.50;99.90
26703;DHT22;14316;51.074;3.704;2023-12-20T02:56:48;6.50;99.90
26703;DHT22;14316;51.074;3.704;2023-12-20T02:59:14;6.50;99.90
26703;DHT22;14316;51.074;3.704;2023-12-20T03:01:45;6.50;99.90
26703;DHT22;14316;51.074;3.704;2023-12-20T03:04:12;6.50;99.90
26703;DHT22;14316;51.074;3.704;2023-12-20T03:06:38;6.50;99.90
26703;DHT22;14316;51.074;3.704;2023-12-20T03:09:04;6.50;99.90
26703;DHT22;14316;51.074;3.704;2023-12-20T03:11:30;6.60;99.90
26703;DHT22;14316;51.074;3.704;2023-12-20T03:13:56;6.60;99.90
26703;DHT22;14316;51.074;3.704;2023-12-20T03:16:22;6.60;99.90
26703;DHT22;14316;51.074;3.704;2023-12-20T03:18:48;6.60;99.90
26703;DHT22;14316;51.074;3.704;2023-12-20T03:21:14;6.60;99.90
26703;DHT22;14316;51.074;3.704;2023-12-20T03:23:40;6.60;99.90
26703;DHT22;14316;51.074;3.704;2023-12-20T03:26:09;6.60;99.90
26703;DHT22;14316;51.074;3.704;2023-12-20T03:28:38;6.60;99.90
26703;DHT22;14316;51.074;3.704;2023-12-20T03:31:04;6.60;99.90
26703;DHT22;14316;51.074;3.704;2023-12-20T03:33:30;6.70;99.90
26703;DHT22;14316;51.074;3.704;2023-12-20T03:35:56;6.70;99.90
26703;DHT22;14316;51.074;3.704;2023-12-20T03:38:22;6.70;99.90
26703;DHT22;14316;51.074;3.704;2023-12-20T03:40:50;6.70;99.90
26703;DHT22;14316;51.074;3.704;2023-12-20T03:43:16;6.70;99.90
26703;DHT22;14316;51.074;3.704;2023-12-20T03:45:43;6.70;99.90
26703;DHT22;14316;51.074;3.704;2023-12-20T03:48:09;6.70;99.90
26703;DHT22;14316;51.074;3.704;2023-12-20T03:50:35;6.70;99.90
26703;DHT22;14316;51.074;3.704;2023-12-20T03:53:01;6.60;99.90
26703;DHT22;14316;51.074;3.704;2023-12-20T03:55:27;6.60;99.90
26703;DHT22;14316;51.074;3.704;2023-12-20T03:57:53;6.60;99.90
26703;DHT22;14316;51.074;3.704;2023-12-20T04:00:19;6.50;99.90
26703;DHT22;14316;51.074;3.704;2023-12-20T04:02:45;6.50;99.90
26703;DHT22;14316;51.074;3.704;2023-12-20T04:05:11;6.50;99.90
26703;DHT22;14316;51.074;3.704;2023-12-20T04:07:38;6.50;99.90
26703;DHT22;14316;51.074;3.704;2023-12-20T04:10:04;6.50;99.90
26703;DHT22;14316;51.074;3.704;2023-12-20T04:12:30;6.40;99.90
26703;DHT22;14316;51.074;3.704;2023-12-20T04:14:57;6.50;99.90
26703;DHT22;14316;51.074;3.704;2023-12-20T04:17:23;6.40;99.90
26703;DHT22;14316;51.074;3.704;2023-12-20T04:19:49;6.50;99.90
26703;DHT22;14316;51.074;3.704;2023-12-20T04:22:16;6.50;99.90
26703;DHT22;14316;51.074;3.704;2023-12-20T04:24:42;6.50;99.90
26703;DHT22;14316;51.074;3.704;2023-12-20T04:27:09;6.50;99.90
26703;DHT22;14316;51.074;3.704;2023-12-20T04:29:35;6.50;99.90
26703;DHT22;14316;51.074;3.704;2023-12-20T04:32:00;6.50;99.90
26703;DHT22;14316;51.074;3.704;2023-12-20T04:34:26;6.60;99.90
26703;DHT22;14316;51.074;3.704;2023-12-20T04:36:53;6.50;99.90
26703;DHT22;14316;51.074;3.704;2023-12-20T04:39:19;6.50;99.90
26703;DHT22;14316;51.074;3.704;2023-12-20T04:41:45;6.40;99.90
26703;DHT22;14316;51.074;3.704;2023-12-20T04:44:13;6.40;99.90
26703;DHT22;14316;51.074;3.704;2023-12-20T04:46:39;6.40;99.90
26703;DHT22;14316;51.074;3.704;2023-12-20T04:49:05;6.40;99.90
26703;DHT22;14316;51.074;3.704;2023-12-20T04:51:33;6.40;99.90
26703;DHT22;14316;51.074;3.704;2023-12-20T04:54:00;6.30;99.90
26703;DHT22;14316;51.074;3.704;2023-12-20T04:56:26;6.30;99.90
26703;DHT22;14316;51.074;3.704;2023-12-20T04:58:52;6.30;99.90
26703;DHT22;14316;51.074;3.704;2023-12-20T05:01:18;6.20;99.90
26703;DHT22;14316;51.074;3.704;2023-12-20T05:03:44;6.20;99.90
26703;DHT22;14316;51.074;3.704;2023-12-20T05:06:10;6.10;99.90
26703;DHT22;14316;51.074;3.704;2023-12-20T05:08:36;6.10;99.90
26703;DHT22;14316;51.074;3.704;2023-12-20T05:11:02;6.10;99.90
26703;DHT22;14316;51.074;3.704;2023-12-20T05:13:28;6.10;99.90
26703;DHT22;14316;51.074;3.704;2023-12-20T05:15:54;6.10;99.90
26703;DHT22;14316;51.074;3.704;2023-12-20T05:18:21;6.10;99.90
26703;DHT22;14316;51.074;3.704;2023-12-20T05:20:49;6.10;99.90
26703;DHT22;14316;51.074;3.704;2023-12-20T05:23:16;6.10;99.90
26703;DHT22;14316;51.074;3.704;2023-12-20T05:25:43;6.10;99.90
26703;DHT22;14316;51.074;3.704;2023-12-20T05:28:08;6.00;99.90
26703;DHT22;14316;51.074;3.704;2023-12-20T05:30:34;6.00;99.90
26703;DHT22;14316;51.074;3.704;2023-12-20T05:33:00;5.90;99.90
26703;DHT22;14316;51.074;3.704;2023-12-20T05:35:26;5.90;99.90
26703;DHT22;14316;51.074;3.704;2023-12-20T05:37:52;5.90;99.90
26703;DHT22;14316;51.074;3.704;2023-12-20T05:40:18;5.90;99.90
26703;DHT22;14316;51.074;3.704;2023-12-20T05:42:44;5.90;99.90
26703;DHT22;14316;51.074;3.704;2023-12-20T05:45:10;6.00;99.90
26703;DHT22;14316;51.074;3.704;2023-12-20T05:47:36;6.00;99.90
26703;DHT22;14316;51.074;3.704;2023-12-20T05:50:02;6.00;99.90
26703;DHT22;14316;51.074;3.704;2023-12-20T05:52:29;6.00;99.90
26703;DHT22;14316;51.074;3.704;2023-12-20T05:54:55;5.90;99.90
26703;DHT22;14316;51.074;3.704;2023-12-20T05:57:23;5.90;99.90
26703;DHT22;14316;51.074;3.704;2023-12-20T05:59:49;5.80;99.90
26703;DHT22;14316;51.074;3.704;2023-12-20T06:02:15;5.80;99.90
26703;DHT22;14316;51.074;3.704;2023-12-20T06:04:44;5.70;99.90
26703;DHT22;14316;51.074;3.704;2023-12-20T06:07:14;5.60;99.90
26703;DHT22;14316;51.074;3.704;2023-12-20T06:09:41;5.60;99.90
26703;DHT22;14316;51.074;3.704;2023-12-20T06:12:07;5.60;99.90
26703;DHT22;14316;51.074;3.704;2023-12-20T06:14:36;5.50;99.90
26703;DHT22;14316;51.074;3.704;2023-12-20T06:17:02;5.60;99.90
26703;DHT22;14316;51.074;3.704;2023-12-20T06:19:28;5.50;99.90
26703;DHT22;14316;51.074;3.704;2023-12-20T06:21:54;5.50;99.90
26703;DHT22;14316;51.074;3.704;2023-12-20T06:24:20;5.50;99.90
26703;DHT22;14316;51.074;3.704;2023-12-20T06:26:47;5.50;99.90
26703;DHT22;14316;51.074;3.704;2023-12-20T06:29:13;5.50;99.90
26703;DHT22;14316;51.074;3.704;2023-12-20T06:31:39;5.50;99.90
26703;DHT22;14316;51.074;3.704;2023-12-20T06:34:05;5.50;99.90
26703;DHT22;14316;51.074;3.704;2023-12-20T06:36:30;5.50;99.90
26703;DHT22;14316;51.074;3.704;2023-12-20T06:38:56;5.50;99.90
26703;DHT22;14316;51.074;3.704;2023-12-20T06:41:23;5.50;99.90
26703;DHT22;14316;51.074;3.704;2023-12-20T06:43:50;5.40;99.90
26703;DHT22;14316;51.074;3.704;2023-12-20T06:46:17;5.40;99.90
26703;DHT22;14316;51.074;3.704;2023-12-20T06:48:43;5.40;99.90
26703;DHT22;14316;51.074;3.704;2023-12-20T06:51:14;5.30;99.90
26703;DHT22;14316;51.074;3.704;2023-12-20T06:53:40;5.30;99.90
26703;DHT22;14316;51.074;3.704;2023-12-20T06:56:06;5.30;99.90
26703;DHT22;14316;51.074;3.704;2023-12-20T06:58:33;5.30;99.90
26703;DHT22;14316;51.074;3.704;2023-12-20T07:00:59;5.30;99.90
26703;DHT22;14316;51.074;3.704;2023-12-20T07:03:24;5.30;99.90
26703;DHT22;14316;51.074;3.704;2023-12-20T07:05:50;5.20;99.90
26703;DHT22;14316;51.074;3.704;2023-12-20T07:08:16;5.30;99.90
26703;DHT22;14316;51.074;3.704;2023-12-20T07:10:42;5.30;99.90
26703;DHT22;14316;51.074;3.704;2023-12-20T07:13:08;5.20;99.90
26703;DHT22;14316;51.074;3.704;2023-12-20T07:15:34;5.20;99.90
26703;DHT22;14316;51.074;3.704;2023-12-20T07:18:01;5.20;99.90
26703;DHT22;14316;51.074;3.704;2023-12-20T07:20:27;5.20;99.90
26703;DHT22;14316;51.074;3.704;2023-12-20T07:22:53;5.20;99.90
26703;DHT22;14316;51.074;3.704;2023-12-20T07:25:19;5.20;99.90
26703;DHT22;14316;51.074;3.704;2023-12-20T07:27:45;5.20;99.90
26703;DHT22;14316;51.074;3.704;2023-12-20T07:30:11;5.20;99.90
26703;DHT22;14316;51.074;3.704;2023-12-20T07:32:37;5.10;99.90
26703;DHT22;14316;51.074;3.704;2023-12-20T07:35:03;5.10;99.90
26703;DHT22;14316;51.074;3.704;2023-12-20T07:37:29;5.20;99.90
26703;DHT22;14316;51.074;3.704;2023-12-20T07:39:55;5.20;99.90
26703;DHT22;14316;51.074;3.704;2023-12-20T07:42:21;5.20;99.90
26703;DHT22;14316;51.074;3.704;2023-12-20T07:44:48;5.20;99.90
26703;DHT22;14316;51.074;3.704;2023-12-20T07:47:13;5.20;99.90
26703;DHT22;14316;51.074;3.704;2023-12-20T07:49:42;5.30;99.90
26703;DHT22;14316;51.074;3.704;2023-12-20T07:52:08;5.30;99.90
26703;DHT22;14316;51.074;3.704;2023-12-20T07:54:34;5.30;99.90
26703;DHT22;14316;51.074;3.704;2023-12-20T07:57:00;5.30;99.90
26703;DHT22;14316;51.074;3.704;2023-12-20T07:59:26;5.30;99.90
26703;DHT22;14316;51.074;3.704;2023-12-20T08:01:52;5.30;99.90
26703;DHT22;14316;51.074;3.704;2023-12-20T08:04:18;5.30;99.90
26703;DHT22;14316;51.074;3.704;2023-12-20T08:06:44;5.30;99.90
26703;DHT22;14316;51.074;3.704;2023-12-20T08:09:10;5.30;99.90
26703;DHT22;14316;51.074;3.704;2023-12-20T08:11:36;5.30;99.90
26703;DHT22;14316;51.074;3.704;2023-12-20T08:14:01;5.30;99.90
26703;DHT22;14316;51.074;3.704;2023-12-20T08:16:27;5.30;99.90
26703;DHT22;14316;51.074;3.704;2023-12-20T08:18:53;5.30;99.90
26703;DHT22;14316;51.074;3.704;2023-12-20T08:21:19;5.30;99.90
26703;DHT22;14316;51.074;3.704;2023-12-20T08:23:48;5.30;99.90
26703;DHT22;14316;51.074;3.704;2023-12-20T08:26:13;5.30;99.90
26703;DHT22;14316;51.074;3.704;2023-12-20T08:28:39;5.30;99.90
26703;DHT22;14316;51.074;3.704;2023-12-20T08:31:05;5.40;99.90
26703;DHT22;14316;51.074;3.704;2023-12-20T08:33:30;5.30;99.90
26703;DHT22;14316;51.074;3.704;2023-12-20T08:35:56;5.40;99.90
26703;DHT22;14316;51.074;3.704;2023-12-20T08:38:22;5.40;99.90
26703;DHT22;14316;51.074;3.704;2023-12-20T08:40:48;5.50;99.90
26703;DHT22;14316;51.074;3.704;2023-12-20T08:43:14;5.50;99.90
26703;DHT22;14316;51.074;3.704;2023-12-20T08:45:39;5.60;99.90
26703;DHT22;14316;51.074;3.704;2023-12-20T08:48:05;5.60;99.90
26703;DHT22;14316;51.074;3.704;2023-12-20T08:50:31;5.80;99.90
26703;DHT22;14316;51.074;3.704;2023-12-20T08:52:57;5.90;99.90
26703;DHT22;14316;51.074;3.704;2023-12-20T08:55:23;6.00;99.90
26703;DHT22;14316;51.074;3.704;2023-12-20T08:57:48;6.10;99.90
26703;DHT22;14316;51.074;3.704;2023-12-20T09:00:16;6.20;99.90
26703;DHT22;14316;51.074;3.704;2023-12-20T09:02:42;6.30;99.90
26703;DHT22;14316;51.074;3.704;2023-12-20T09:05:07;6.40;99.90
26703;DHT22;14316;51.074;3.704;2023-12-20T09:07:33;6.40;99.90
26703;DHT22;14316;51.074;3.704;2023-12-20T09:09:59;6.40;99.90
26703;DHT22;14316;51.074;3.704;2023-12-20T09:12:24;6.50;99.90
26703;DHT22;14316;51.074;3.704;2023-12-20T09:14:51;6.50;99.90
26703;DHT22;14316;51.074;3.704;2023-12-20T09:17:18;6.50;99.90
26703;DHT22;14316;51.074;3.704;2023-12-20T09:19:45;6.50;99.90
26703;DHT22;14316;51.074;3.704;2023-12-20T09:22:11;6.50;99.90
26703;DHT22;14316;51.074;3.704;2023-12-20T09:24:38;6.60;99.90
26703;DHT22;14316;51.074;3.704;2023-12-20T09:27:06;6.50;99.90
26703;DHT22;14316;51.074;3.704;2023-12-20T09:29:33;6.50;99.90
26703;DHT22;14316;51.074;3.704;2023-12-20T09:31:59;6.50;99.90
26703;DHT22;14316;51.074;3.704;2023-12-20T09:34:25;6.70;99.90
26703;DHT22;14316;51.074;3.704;2023-12-20T09:36:51;6.80;99.90
26703;DHT22;14316;51.074;3.704;2023-12-20T09:39:18;7.00;99.90
26703;DHT22;14316;51.074;3.704;2023-12-20T09:42:06;7.10;99.90
26703;DHT22;14316;51.074;3.704;2023-12-20T09:44:33;7.30;99.90
26703;DHT22;14316;51.074;3.704;2023-12-20T09:47:05;7.40;99.90
26703;DHT22;14316;51.074;3.704;2023-12-20T09:49:32;7.40;99.90
26703;DHT22;14316;51.074;3.704;2023-12-20T09:52:00;7.40;99.90
26703;DHT22;14316;51.074;3.704;2023-12-20T09:54:27;7.50;99.90
26703;DHT22;14316;51.074;3.704;2023-12-20T09:56:53;7.40;99.90
26703;DHT22;14316;51.074;3.704;2023-12-20T09:59:19;7.50;99.90
26703;DHT22;14316;51.074;3.704;2023-12-20T10:01:45;7.40;99.90
26703;DHT22;14316;51.074;3.704;2023-12-20T10:04:12;7.50;99.90
26703;DHT22;14316;51.074;3.704;2023-12-20T10:06:42;7.50;99.90
26703;DHT22;14316;51.074;3.704;2023-12-20T10:09:11;7.40;99.90
26703;DHT22;14316;51.074;3.704;2023-12-20T10:11:38;7.40;99.90
26703;DHT22;14316;51.074;3.704;2023-12-20T10:14:04;7.40;99.90
26703;DHT22;14316;51.074;3.704;2023-12-20T10:16:31;7.50;99.90
26703;DHT22;14316;51.074;3.704;2023-12-20T10:18:58;7.50;99.90
26703;DHT22;14316;51.074;3.704;2023-12-20T10:21:24;7.50;99.90
26703;DHT22;14316;51.074;3.704;2023-12-20T10:23:52;7.50;99.90
26703;DHT22;14316;51.074;3.704;2023-12-20T10:26:22;7.50;99.90
26703;DHT22;14316;51.074;3.704;2023-12-20T10:28:56;7.50;99.90
26703;DHT22;14316;51.074;3.704;2023-12-20T10:31:34;7.60;99.90
26703;DHT22;14316;51.074;3.704;2023-12-20T10:34:02;7.50;99.90
26703;DHT22;14316;51.074;3.704;2023-12-20T10:36:32;7.50;99.90
26703;DHT22;14316;51.074;3.704;2023-12-20T10:38:59;7.60;99.90
26703;DHT22;14316;51.074;3.704;2023-12-20T10:41:27;7.60;99.90
26703;DHT22;14316;51.074;3.704;2023-12-20T10:44:00;7.60;99.90
26703;DHT22;14316;51.074;3.704;2023-12-20T10:46:27;7.60;99.90
26703;DHT22;14316;51.074;3.704;2023-12-20T10:48:54;7.60;99.90
26703;DHT22;14316;51.074;3.704;2023-12-20T10:51:21;7.70;99.90
26703;DHT22;14316;51.074;3.704;2023-12-20T10:53:50;7.70;99.90
26703;DHT22;14316;51.074;3.704;2023-12-20T10:56:19;7.70;99.90
26703;DHT22;14316;51.074;3.704;2023-12-20T10:58:46;7.80;99.90
26703;DHT22;14316;51.074;3.704;2023-12-20T11:01:16;7.90;99.90
26703;DHT22;14316;51.074;3.704;2023-12-20T11:03:52;7.90;99.90
26703;DHT22;14316;51.074;3.704;2023-12-20T11:06:47;8.00;99.90
26703;DHT22;14316;51.074;3.704;2023-12-20T11:09:31;8.00;99.90
26703;DHT22;14316;51.074;3.704;2023-12-20T11:12:35;8.10;99.90
26703;DHT22;14316;51.074;3.704;2023-12-20T11:15:03;8.10;99.90
26703;DHT22;14316;51.074;3.704;2023-12-20T11:17:31;8.20;99.90
26703;DHT22;14316;51.074;3.704;2023-12-20T11:22:32;8.20;99.90
26703;DHT22;14316;51.074;3.704;2023-12-20T11:25:09;8.30;99.90
26703;DHT22;14316;51.074;3.704;2023-12-20T11:27:36;8.40;99.90
26703;DHT22;14316;51.074;3.704;2023-12-20T11:30:05;8.40;99.90
26703;DHT22;14316;51.074;3.704;2023-12-20T11:32:35;8.30;99.90
26703;DHT22;14316;51.074;3.704;2023-12-20T11:37:31;8.40;99.90
26703;DHT22;14316;51.074;3.704;2023-12-20T11:40:06;8.50;99.90
26703;DHT22;14316;51.074;3.704;2023-12-20T11:42:45;8.50;99.90
26703;DHT22;14316;51.074;3.704;2023-12-20T11:45:13;8.50;99.90
26703;DHT22;14316;51.074;3.704;2023-12-20T11:47:43;8.50;99.90
26703;DHT22;14316;51.074;3.704;2023-12-20T11:50:10;8.50;99.90
26703;DHT22;14316;51.074;3.704;2023-12-20T11:52:36;8.50;99.90
26703;DHT22;14316;51.074;3.704;2023-12-20T11:55:03;8.50;99.90
26703;DHT22;14316;51.074;3.704;2023-12-20T11:57:30;8.50;99.90
26703;DHT22;14316;51.074;3.704;2023-12-20T11:59:55;8.50;99.90
26703;DHT22;14316;51.074;3.704;2023-12-20T12:02:21;8.40;99.90
26703;DHT22;14316;51.074;3.704;2023-12-20T12:04:49;8.30;99.90
26703;DHT22;14316;51.074;3.704;2023-12-20T12:07:16;8.30;99.90
26703;DHT22;14316;51.074;3.704;2023-12-20T12:09:43;8.30;99.90
26703;DHT22;14316;51.074;3.704;2023-12-20T12:12:10;8.30;99.90
26703;DHT22;14316;51.074;3.704;2023-12-20T12:14:37;8.30;99.90
26703;DHT22;14316;51.074;3.704;2023-12-20T12:17:03;8.30;99.90
26703;DHT22;14316;51.074;3.704;2023-12-20T12:19:29;8.30;99.90
26703;DHT22;14316;51.074;3.704;2023-12-20T12:22:10;8.30;99.90
26703;DHT22;14316;51.074;3.704;2023-12-20T12:24:45;8.40;99.90
26703;DHT22;14316;51.074;3.704;2023-12-20T12:27:12;8.50;99.90
26703;DHT22;14316;51.074;3.704;2023-12-20T12:29:38;8.50;99.90
26703;DHT22;14316;51.074;3.704;2023-12-20T12:32:08;8.60;99.90
26703;DHT22;14316;51.074;3.704;2023-12-20T12:34:35;8.60;99.90
26703;DHT22;14316;51.074;3.704;2023-12-20T12:37:01;8.70;99.90
26703;DHT22;14316;51.074;3.704;2023-12-20T12:39:27;8.90;99.90
26703;DHT22;14316;51.074;3.704;2023-12-20T12:41:53;9.00;99.90
26703;DHT22;14316;51.074;3.704;2023-12-20T12:44:19;9.10;99.90
26703;DHT22;14316;51.074;3.704;2023-12-20T12:46:48;9.20;99.90
26703;DHT22;14316;51.074;3.704;2023-12-20T12:49:16;9.30;99.90
26703;DHT22;14316;51.074;3.704;2023-12-20T12:51:42;9.30;99.90
26703;DHT22;14316;51.074;3.704;2023-12-20T12:54:09;9.30;99.90
26703;DHT22;14316;51.074;3.704;2023-12-20T12:56:36;9.30;99.90
26703;DHT22;14316;51.074;3.704;2023-12-20T12:59:02;9.30;99.90
26703;DHT22;14316;51.074;3.704;2023-12-20T13:01:28;9.20;99.90
26703;DHT22;14316;51.074;3.704;2023-12-20T13:03:54;9.30;99.90
26703;DHT22;14316;51.074;3.704;2023-12-20T13:06:20;9.30;99.90
26703;DHT22;14316;51.074;3.704;2023-12-20T13:08:46;9.30;99.90
26703;DHT22;14316;51.074;3.704;2023-12-20T13:11:12;9.30;99.90
26703;DHT22;14316;51.074;3.704;2023-12-20T13:13:38;9.30;99.90
26703;DHT22;14316;51.074;3.704;2023-12-20T13:16:04;9.40;99.90
26703;DHT22;14316;51.074;3.704;2023-12-20T13:18:30;9.40;99.90
26703;DHT22;14316;51.074;3.704;2023-12-20T13:20:56;9.40;99.90
26703;DHT22;14316;51.074;3.704;2023-12-20T13:23:22;9.40;99.90
26703;DHT22;14316;51.074;3.704;2023-12-20T13:25:48;9.40;99.90
26703;DHT22;14316;51.074;3.704;2023-12-20T13:28:14;9.40;99.90
26703;DHT22;14316;51.074;3.704;2023-12-20T13:30:40;9.40;99.90
26703;DHT22;14316;51.074;3.704;2023-12-20T13:33:06;9.30;99.90
26703;DHT22;14316;51.074;3.704;2023-12-20T13:35:33;9.30;99.90
26703;DHT22;14316;51.074;3.704;2023-12-20T13:38:00;9.30;99.90
26703;DHT22;14316;51.074;3.704;2023-12-20T13:40:26;9.30;99.90
26703;DHT22;14316;51.074;3.704;2023-12-20T13:42:52;9.30;99.90
26703;DHT22;14316;51.074;3.704;2023-12-20T13:45:18;9.30;99.90
26703;DHT22;14316;51.074;3.704;2023-12-20T13:47:44;9.30;99.90
26703;DHT22;14316;51.074;3.704;2023-12-20T13:50:10;9.30;99.90
26703;DHT22;14316;51.074;3.704;2023-12-20T13:52:36;9.30;99.90
26703;DHT22;14316;51.074;3.704;2023-12-20T13:55:02;9.30;99.90
26703;DHT22;14316;51.074;3.704;2023-12-20T13:57:28;9.30;99.90
26703;DHT22;14316;51.074;3.704;2023-12-20T13:59:57;9.30;99.90
26703;DHT22;14316;51.074;3.704;2023-12-20T14:02:23;9.30;99.90
26703;DHT22;14316;51.074;3.704;2023-12-20T14:04:49;9.30;99.90
26703;DHT22;14316;51.074;3.704;2023-12-20T14:07:15;9.30;99.90
26703;DHT22;14316;51.074;3.704;2023-12-20T14:09:41;9.30;99.90
26703;DHT22;14316;51.074;3.704;2023-12-20T14:12:14;9.30;99.90
26703;DHT22;14316;51.074;3.704;2023-12-20T14:14:40;9.20;99.90
26703;DHT22;14316;51.074;3.704;2023-12-20T14:17:06;9.30;99.90
26703;DHT22;14316;51.074;3.704;2023-12-20T14:19:32;9.30;99.90
26703;DHT22;14316;51.074;3.704;2023-12-20T14:21:58;9.30;99.90
26703;DHT22;14316;51.074;3.704;2023-12-20T14:24:27;9.30;99.90
26703;DHT22;14316;51.074;3.704;2023-12-20T14:26:53;9.30;99.90
26703;DHT22;14316;51.074;3.704;2023-12-20T14:29:19;9.30;99.90
26703;DHT22;14316;51.074;3.704;2023-12-20T14:31:45;9.30;99.90
26703;DHT22;14316;51.074;3.704;2023-12-20T14:34:11;9.30;99.90
26703;DHT22;14316;51.074;3.704;2023-12-20T14:36:37;9.30;99.90
26703;DHT22;14316;51.074;3.704;2023-12-20T14:39:05;9.30;99.90
26703;DHT22;14316;51.074;3.704;2023-12-20T14:41:31;9.30;99.90
26703;DHT22;14316;51.074;3.704;2023-12-20T14:43:57;9.30;99.90
26703;DHT22;14316;51.074;3.704;2023-12-20T14:46:23;9.30;99.90
26703;DHT22;14316;51.074;3.704;2023-12-20T14:48:48;9.30;99.90
26703;DHT22;14316;51.074;3.704;2023-12-20T14:51:15;9.30;99.90
26703;DHT22;14316;51.074;3.704;2023-12-20T14:53:41;9.30;99.90
26703;DHT22;14316;51.074;3.704;2023-12-20T14:56:08;9.30;99.90
26703;DHT22;14316;51.074;3.704;2023-12-20T14:58:34;9.30;99.90
26703;DHT22;14316;51.074;3.704;2023-12-20T15:01:00;9.30;99.90
26703;DHT22;14316;51.074;3.704;2023-12-20T15:03:26;9.30;99.90
26703;DHT22;14316;51.074;3.704;2023-12-20T15:05:52;9.30;99.90
26703;DHT22;14316;51.074;3.704;2023-12-20T15:08:18;9.30;99.90
26703;DHT22;14316;51.074;3.704;2023-12-20T15:10:44;9.20;99.90
26703;DHT22;14316;51.074;3.704;2023-12-20T15:13:09;9.20;99.90
26703;DHT22;14316;51.074;3.704;2023-12-20T15:15:35;9.20;99.90
26703;DHT22;14316;51.074;3.704;2023-12-20T15:18:02;9.20;99.90
26703;DHT22;14316;51.074;3.704;2023-12-20T15:20:29;9.20;99.90
26703;DHT22;14316;51.074;3.704;2023-12-20T15:22:58;9.20;99.90
26703;DHT22;14316;51.074;3.704;2023-12-20T15:25:30;9.20;99.90
26703;DHT22;14316;51.074;3.704;2023-12-20T15:27:57;9.10;99.90
26703;DHT22;14316;51.074;3.704;2023-12-20T15:30:22;9.20;99.90
26703;DHT22;14316;51.074;3.704;2023-12-20T15:32:51;9.10;99.90
26703;DHT22;14316;51.074;3.704;2023-12-20T15:35:17;9.10;99.90
26703;DHT22;14316;51.074;3.704;2023-12-20T15:37:43;9.10;99.90
26703;DHT22;14316;51.074;3.704;2023-12-20T15:40:10;9.10;99.90
26703;DHT22;14316;51.074;3.704;2023-12-20T15:42:40;9.00;99.90
26703;DHT22;14316;51.074;3.704;2023-12-20T15:45:07;9.00;99.90
26703;DHT22;14316;51.074;3.704;2023-12-20T15:47:36;9.00;99.90